Time;durP1;ratioP1;P1;durP2;ratioP2;P2;SDS_P1;SDS_P2;PMS_P1;PMS_P2;Temp;Humidity;BMP_temperature;BMP_pressure;BME280_temperature;BME280_humidity;BME280_pressure;Samples;Min_cycle;Max_cycle;Signal;HPM_P1;HPM_P2
2023/01/17 00:00:18;;;;;;;1.35;1.25;;;22.50;64.90;;;;;;5072490;28;20737;-59
2023/01/17 00:03:07;;;;;;;1.05;1.00;;;22.50;64.70;;;;;;5072766;28;20618;-59
2023/01/17 00:12:07;;;;;;;1.50;0.90;;;22.50;64.50;;;;;;5072629;28;20517;-58
2023/01/17 00:14:58;;;;;;;1.27;1.00;;;22.60;64.60;;;;;;5073096;28;20576;-58
2023/01/17 00:17:47;;;;;;;1.42;1.30;;;22.60;64.60;;;;;;5073010;28;20801;-59
2023/01/17 01:36:29;;;;;;;1.13;1.02;;;22.50;64.30;;;;;;5054962;28;20281;-59
2023/01/17 01:39:17;;;;;;;1.27;1.00;;;22.60;64.40;;;;;;5055003;28;20663;-59
2023/01/17 01:42:13;;;;;;;1.20;1.10;;;22.60;64.30;;;;;;5055857;28;20205;-59
2023/01/17 01:45:01;;;;;;;1.20;1.10;;;22.60;64.30;;;;;;5056107;28;20247;-59
2023/01/17 01:47:51;;;;;;;1.27;1.15;;;22.60;64.20;;;;;;5055798;28;20318;-59
2023/01/17 01:50:39;;;;;;;1.25;1.15;;;22.60;64.10;;;;;;5054194;28;20292;-59
2023/01/17 01:53:31;;;;;;;1.10;1.05;;;22.60;64.20;;;;;;5055664;28;20257;-59
2023/01/17 01:56:22;;;;;;;1.13;1.02;;;22.60;64.10;;;;;;5055180;28;20283;-59
2023/01/17 01:59:13;;;;;;;1.17;1.08;;;22.60;64.10;;;;;;5054869;28;20217;-59
2023/01/17 02:02:01;;;;;;;1.27;1.10;;;22.50;63.90;;;;;;5054861;28;20712;-59
2023/01/17 02:04:50;;;;;;;1.30;1.10;;;22.50;64.00;;;;;;5071488;28;20674;-59
2023/01/17 02:07:43;;;;;;;1.05;0.95;;;22.40;64.00;;;;;;5075067;28;20235;-58
2023/01/17 02:10:34;;;;;;;1.60;1.17;;;22.40;64.20;;;;;;5073078;28;20211;-58
2023/01/17 02:13:22;;;;;;;0.90;0.80;;;22.40;64.30;;;;;;5074254;28;20799;-58
2023/01/17 02:16:19;;;;;;;1.40;1.10;;;22.40;64.30;;;;;;5075418;28;20247;-58
2023/01/17 02:19:34;;;;;;;1.20;1.10;;;22.40;64.30;;;;;;5074773;28;20224;-58
2023/01/17 02:22:45;;;;;;;1.23;0.90;;;22.40;64.30;;;;;;5075913;28;20572;-58
2023/01/17 02:26:09;;;;;;;1.88;1.42;;;22.40;64.10;;;;;;5075367;28;20200;-57
2023/01/17 02:29:17;;;;;;;1.33;1.23;;;22.50;64.30;;;;;;5073933;28;20582;-57
2023/01/17 02:32:14;;;;;;;1.25;0.90;;;22.50;64.20;;;;;;5068793;28;20280;-57
2023/01/17 02:35:09;;;;;;;1.13;1.02;;;22.50;64.20;;;;;;5074127;28;20209;-57
2023/01/17 02:38:05;;;;;;;1.90;1.10;;;22.50;64.20;;;;;;5074540;28;20252;-58
2023/01/17 02:40:57;;;;;;;1.10;1.00;;;22.50;64.20;;;;;;5073726;28;20204;-58
2023/01/17 02:43:48;;;;;;;1.10;1.00;;;22.60;64.10;;;;;;5073729;28;20205;-58
2023/01/17 02:46:44;;;;;;;1.40;1.00;;;22.50;64.10;;;;;;5074578;28;20201;-58
2023/01/17 02:49:34;;;;;;;1.52;1.20;;;22.50;64.00;;;;;;5074213;28;20200;-58
2023/01/17 02:52:38;;;;;;;1.83;1.08;;;22.50;64.20;;;;;;5074106;28;20651;-58
2023/01/17 02:55:37;;;;;;;0.98;0.88;;;22.50;64.20;;;;;;5073399;28;20247;-59
2023/01/17 02:58:39;;;;;;;1.00;0.90;;;22.50;64.20;;;;;;5074212;28;20717;-59
2023/01/17 03:01:34;;;;;;;1.10;0.95;;;22.40;64.20;;;;;;5073086;28;20310;-59
2023/01/17 03:04:28;;;;;;;1.00;0.90;;;22.50;64.30;;;;;;5073791;28;20209;-59
2023/01/17 03:07:22;;;;;;;0.90;0.90;;;22.60;83.40;;;;;;5073509;28;20627;-58
2023/01/17 03:10:12;;;;;;;1.08;1.00;;;22.50;64.30;;;;;;5072862;28;20193;-59
2023/01/17 03:13:00;;;;;;;1.10;1.00;;;22.50;64.30;;;;;;5072148;28;20258;-58
2023/01/17 03:15:49;;;;;;;2.42;1.20;;;22.50;64.20;;;;;;5072376;28;20242;-58
2023/01/17 03:18:37;;;;;;;0.93;0.93;;;22.60;64.40;;;;;;5070842;28;20599;-57
2023/01/17 03:21:25;;;;;;;1.60;1.05;;;22.60;64.30;;;;;;5072340;28;20196;-59
2023/01/17 03:24:15;;;;;;;1.17;1.08;;;22.60;64.30;;;;;;5073019;28;20283;-59
2023/01/17 03:27:03;;;;;;;0.93;0.90;;;22.40;78.60;;;;;;5073512;28;20817;-59
2023/01/17 03:29:51;;;;;;;0.90;0.90;;;22.60;64.40;;;;;;5072863;28;20694;-59
2023/01/17 03:32:39;;;;;;;1.20;1.10;;;22.60;64.20;;;;;;5073764;28;20200;-59
2023/01/17 03:35:27;;;;;;;0.80;0.80;;;22.50;64.20;;;;;;5073791;28;20211;-59
2023/01/17 03:38:16;;;;;;;1.00;0.90;;;22.60;64.20;;;;;;5073647;28;20313;-59
2023/01/17 03:41:06;;;;;;;1.27;0.93;;;22.60;64.40;;;;;;5072648;28;20254;-59
2023/01/17 03:43:54;;;;;;;0.80;0.80;;;22.60;64.30;;;;;;5072952;28;20278;-60
2023/01/17 03:46:42;;;;;;;1.10;1.00;;;22.60;64.30;;;;;;5073039;28;20279;-60
2023/01/17 03:49:30;;;;;;;0.90;0.80;;;22.60;64.30;;;;;;5072230;28;20232;-58
2023/01/17 03:52:18;;;;;;;0.90;0.90;;;22.60;64.30;;;;;;5073240;28;20683;-59
2023/01/17 03:55:07;;;;;;;0.85;0.85;;;22.60;64.40;;;;;;5072840;28;20226;-60
2023/01/17 03:57:56;;;;;;;0.73;0.73;;;22.60;64.40;;;;;;5073693;28;20322;-58
2023/01/17 04:00:44;;;;;;;0.90;0.90;;;22.60;64.40;;;;;;5072881;28;20201;-58
2023/01/17 04:03:32;;;;;;;0.82;0.80;;;22.60;64.40;;;;;;5073457;28;20278;-58
2023/01/17 04:06:20;;;;;;;0.98;0.98;;;22.60;64.40;;;;;;5072565;28;20228;-58
2023/01/17 04:09:09;;;;;;;1.13;0.80;;;22.60;64.30;;;;;;5072636;28;20244;-58
2023/01/17 04:11:57;;;;;;;0.90;0.80;;;22.60;64.40;;;;;;5072543;28;20238;-59
2023/01/17 04:14:46;;;;;;;1.55;0.88;;;22.60;64.40;;;;;;5073281;28;20681;-60
2023/01/17 04:17:35;;;;;;;0.80;0.80;;;22.60;64.40;;;;;;5072461;28;20244;-59
2023/01/17 04:20:30;;;;;;;0.80;0.80;;;22.50;64.40;;;;;;5073892;28;20246;-59
2023/01/17 04:23:19;;;;;;;0.93;0.85;;;22.50;64.40;;;;;;5073310;28;20196;-59
2023/01/17 04:26:07;;;;;;;0.70;0.70;;;22.50;64.40;;;;;;5072967;28;20280;-59
2023/01/17 04:28:55;;;;;;;1.13;0.73;;;22.60;64.50;;;;;;5072591;28;20705;-59
2023/01/17 04:31:45;;;;;;;1.08;0.98;;;22.50;65.10;;;;;;5071692;28;20210;-59
2023/01/17 04:34:33;;;;;;;0.80;0.80;;;22.50;64.30;;;;;;5071672;28;20211;-59
2023/01/17 04:37:21;;;;;;;1.70;0.80;;;22.50;64.40;;;;;;5072836;28;20282;-60
2023/01/17 04:40:10;;;;;;;0.70;0.70;;;22.40;64.30;;;;;;5072491;28;20217;-63
2023/01/17 04:42:59;;;;;;;0.80;0.73;;;22.40;64.50;;;;;;5072104;28;20717;-59
2023/01/17 04:45:47;;;;;;;1.10;0.80;;;22.40;64.60;;;;;;5072408;28;20228;-66
2023/01/17 04:48:36;;;;;;;0.63;0.63;;;22.40;64.60;;;;;;5071466;28;20212;-58
2023/01/17 04:51:24;;;;;;;0.82;0.80;;;22.50;64.70;;;;;;5071886;28;20280;-59
2023/01/17 04:54:12;;;;;;;0.73;0.70;;;22.50;64.70;;;;;;5071458;28;20193;-59
2023/01/17 04:57:01;;;;;;;0.95;0.93;;;22.50;64.70;;;;;;5072026;28;20283;-58
2023/01/17 04:59:49;;;;;;;0.88;0.88;;;22.60;64.70;;;;;;5071606;28;20296;-59
2023/01/17 05:02:37;;;;;;;0.80;0.80;;;22.60;64.60;;;;;;5071851;28;20284;-58
2023/01/17 05:05:26;;;;;;;0.95;0.80;;;22.60;64.60;;;;;;5052168;28;20204;-58
2023/01/17 05:08:15;;;;;;;0.70;0.70;;;22.60;64.60;;;;;;5051573;28;20721;-59
2023/01/17 05:11:03;;;;;;;0.70;0.60;;;22.60;64.50;;;;;;5051183;28;20504;-58
2023/01/17 05:13:51;;;;;;;1.02;0.75;;;22.60;64.50;;;;;;5052359;28;20762;-58
2023/01/17 05:16:39;;;;;;;0.60;0.60;;;22.60;64.50;;;;;;5051576;28;20201;-58
2023/01/17 05:19:27;;;;;;;1.50;0.80;;;22.60;64.40;;;;;;5052225;28;20253;-59
2023/01/17 05:22:17;;;;;;;1.00;0.90;;;22.60;64.50;;;;;;5050882;28;20202;-59
2023/01/17 05:25:05;;;;;;;0.60;0.60;;;22.70;64.60;;;;;;5055997;28;20219;-59
2023/01/17 05:27:54;;;;;;;0.70;0.70;;;22.70;64.40;;;;;;5054439;28;20240;-59
2023/01/17 05:30:42;;;;;;;0.88;0.70;;;22.70;64.40;;;;;;5055182;28;20681;-59
2023/01/17 05:33:30;;;;;;;0.70;0.70;;;22.70;64.40;;;;;;5055571;28;20682;-59
2023/01/17 05:36:18;;;;;;;0.80;0.70;;;22.60;64.30;;;;;;5055153;28;20309;-64
2023/01/17 05:39:09;;;;;;;0.63;0.63;;;22.70;64.40;;;;;;5055313;28;20221;-59
2023/01/17 05:41:57;;;;;;;0.80;0.80;;;22.60;64.30;;;;;;5055780;28;20263;-63
2023/01/17 05:44:45;;;;;;;0.68;0.68;;;22.60;64.40;;;;;;5055370;28;20216;-58
2023/01/17 05:47:33;;;;;;;0.85;0.85;;;22.60;64.30;;;;;;5054889;28;20744;-58
2023/01/17 05:50:24;;;;;;;0.70;0.60;;;22.60;64.70;;;;;;5055568;28;20193;-58
2023/01/17 05:53:14;;;;;;;0.60;0.60;;;22.50;64.50;;;;;;5055231;28;20331;-59
2023/01/17 05:56:03;;;;;;;1.02;0.73;;;22.50;64.50;;;;;;5055413;28;20733;-59
2023/01/17 05:58:51;;;;;;;0.68;0.68;;;22.50;65.40;;;;;;5055237;28;20312;-59
2023/01/17 06:01:39;;;;;;;1.15;0.68;;;22.60;64.80;;;;;;5055395;28;20201;-61
2023/01/17 06:04:28;;;;;;;1.02;0.70;;;22.50;64.70;;;;;;5067171;28;20280;-60
2023/01/17 06:07:16;;;;;;;0.60;0.60;;;22.70;83.10;;;;;;5075254;28;20302;-58
2023/01/17 06:10:05;;;;;;;0.60;0.60;;;22.60;64.80;;;;;;5073120;28;20201;-58
2023/01/17 06:13:03;;;;;;;0.90;0.60;;;22.60;64.70;;;;;;5074204;28;20224;-59
2023/01/17 06:15:51;;;;;;;1.27;0.88;;;22.60;64.60;;;;;;5074503;28;20307;-58
2023/01/17 06:18:39;;;;;;;2.25;0.80;;;22.70;64.70;;;;;;5074195;28;20217;-58
2023/01/17 06:21:29;;;;;;;5.53;0.90;;;22.70;64.60;;;;;;5074026;28;20227;-58
2023/01/17 06:24:17;;;;;;;1.17;0.93;;;22.60;64.40;;;;;;5074201;28;20234;-59
2023/01/17 06:27:05;;;;;;;2.35;0.80;;;22.60;77.80;;;;;;5073658;28;20260;-58
2023/01/17 06:29:55;;;;;;;2.75;1.15;;;22.50;64.40;;;;;;5073972;28;20614;-59
2023/01/17 06:32:43;;;;;;;5.43;1.13;;;22.60;64.60;;;;;;5073060;28;20284;-59
2023/01/17 06:35:31;;;;;;;5.15;0.85;;;22.50;64.50;;;;;;5073961;28;20196;-59
2023/01/17 06:38:20;;;;;;;1.63;0.80;;;22.50;64.70;;;;;;5068781;28;20318;-59
2023/01/17 06:41:08;;;;;;;3.92;1.00;;;22.50;64.70;;;;;;5073847;28;20835;-59
2023/01/17 06:43:56;;;;;;;5.15;1.00;;;22.50;64.70;;;;;;5074029;28;20212;-60
2023/01/17 06:46:47;;;;;;;2.25;0.90;;;22.50;64.80;;;;;;5070168;28;20219;-59
2023/01/17 06:49:35;;;;;;;3.50;0.80;;;22.60;64.80;;;;;;5073355;28;20201;-59
2023/01/17 06:52:23;;;;;;;6.57;0.85;;;22.60;65.00;;;;;;5074074;28;20201;-58
2023/01/17 06:55:11;;;;;;;3.53;0.95;;;22.60;64.90;;;;;;5073889;28;20211;-59
2023/01/17 06:58:01;;;;;;;3.67;1.30;;;22.60;65.00;;;;;;5074011;28;20232;-60
2023/01/17 07:00:50;;;;;;;3.53;0.82;;;22.60;64.80;;;;;;5073246;28;20216;-59
2023/01/17 07:03:39;;;;;;;2.53;0.80;;;22.60;64.80;;;;;;5069512;28;20280;-59
2023/01/17 07:06:28;;;;;;;2.95;0.90;;;22.60;64.80;;;;;;5072403;28;20203;-59
2023/01/17 07:09:16;;;;;;;3.17;1.00;;;22.70;64.70;;;;;;5065729;28;20322;-60
2023/01/17 07:12:05;;;;;;;6.88;1.10;;;22.70;64.80;;;;;;5073165;28;20720;-59
2023/01/17 07:14:54;;;;;;;3.10;1.00;;;22.70;64.80;;;;;;5072124;28;20685;-59
2023/01/17 07:17:42;;;;;;;9.48;1.15;;;22.70;64.80;;;;;;5073199;28;20303;-58
2023/01/17 07:20:31;;;;;;;3.70;1.00;;;22.70;64.80;;;;;;5071782;28;20311;-59
2023/01/17 07:23:22;;;;;;;5.40;1.27;;;22.70;64.80;;;;;;5071772;28;20250;-58
2023/01/17 07:26:10;;;;;;;3.88;1.10;;;22.60;64.80;;;;;;5065861;28;20754;-59
2023/01/17 07:28:58;;;;;;;1.58;0.80;;;22.70;64.70;;;;;;5072682;28;20246;-59
2023/01/17 07:31:48;;;;;;;2.22;1.17;;;22.70;64.70;;;;;;5072810;28;20575;-59
2023/01/17 07:34:36;;;;;;;3.15;1.05;;;22.70;64.60;;;;;;5073289;28;20205;-59
2023/01/17 07:37:26;;;;;;;1.45;0.82;;;22.70;64.60;;;;;;5071705;28;20258;-59
2023/01/17 07:40:16;;;;;;;3.38;1.00;;;22.70;64.70;;;;;;5069242;28;20309;-60
2023/01/17 07:43:12;;;;;;;1.73;0.88;;;22.70;64.90;;;;;;5063830;28;20205;-59
2023/01/17 07:46:00;;;;;;;2.20;0.90;;;22.60;64.60;;;;;;5071568;28;20279;-59
2023/01/17 07:48:49;;;;;;;3.00;0.90;;;22.60;64.60;;;;;;5060826;28;20217;-59
2023/01/17 07:51:37;;;;;;;2.08;0.80;;;22.70;64.90;;;;;;5071622;28;20228;-59
2023/01/17 07:54:26;;;;;;;3.15;0.77;;;22.70;64.90;;;;;;5070693;28;20283;-60
2023/01/17 07:57:14;;;;;;;1.60;0.88;;;22.70;65.00;;;;;;5071680;28;20241;-58
2023/01/17 08:00:04;;;;;;;3.20;1.10;;;22.70;65.00;;;;;;5071585;28;20291;-58
2023/01/17 08:02:56;;;;;;;2.45;0.90;;;22.70;65.00;;;;;;5055356;28;20307;-58
2023/01/17 08:05:53;;;;;;;2.35;0.98;;;22.70;65.00;;;;;;5053160;28;20200;-58
2023/01/17 08:08:41;;;;;;;3.47;0.90;;;22.70;65.00;;;;;;5064386;28;20224;-58
2023/01/17 08:11:30;;;;;;;3.22;0.80;;;22.70;65.10;;;;;;5069406;28;20199;-59
2023/01/17 08:14:18;;;;;;;1.85;1.10;;;22.80;65.10;;;;;;5058243;28;20300;-59
2023/01/17 08:17:07;;;;;;;2.50;0.80;;;22.90;65.20;;;;;;5059225;28;20273;-58
2023/01/17 08:19:55;;;;;;;1.60;0.77;;;22.80;64.90;;;;;;5070955;28;20213;-59
2023/01/17 08:22:43;;;;;;;5.18;0.88;;;22.80;65.00;;;;;;5061810;28;20226;-58
2023/01/17 08:25:34;;;;;;;3.00;1.35;;;22.50;64.80;;;;;;5070003;28;20228;-58
2023/01/17 08:28:23;;;;;;;3.70;1.60;;;22.80;65.00;;;;;;5070865;28;20719;-59
2023/01/17 08:31:11;;;;;;;2.60;0.85;;;22.70;65.10;;;;;;5069420;28;20223;-59
2023/01/17 08:34:00;;;;;;;4.13;1.00;;;22.70;65.20;;;;;;5067197;28;20239;-58
2023/01/17 08:36:48;;;;;;;1.83;0.88;;;22.70;65.30;;;;;;5065021;28;20327;-58
2023/01/17 08:39:36;;;;;;;3.60;1.10;;;22.60;65.40;;;;;;5069525;28;20197;-58
2023/01/17 08:42:24;;;;;;;7.00;1.13;;;22.70;65.40;;;;;;5068797;28;20289;-58
2023/01/17 08:45:14;;;;;;;2.65;0.88;;;22.70;65.60;;;;;;5071213;28;20275;-58
2023/01/17 08:48:02;;;;;;;1.83;0.80;;;22.70;65.70;;;;;;5067021;28;20345;-58
2023/01/17 08:50:51;;;;;;;4.80;1.00;;;22.70;65.70;;;;;;5064048;28;20596;-57
2023/01/17 08:53:39;;;;;;;2.85;0.95;;;22.80;65.70;;;;;;5065008;28;20683;-57
2023/01/17 08:56:27;;;;;;;5.55;1.25;;;22.80;66.30;;;;;;5066026;28;20200;-57
2023/01/17 08:59:15;;;;;;;1.60;0.93;;;22.90;66.60;;;;;;5068167;28;20611;-57
2023/01/17 09:02:13;;;;;;;1.90;0.82;;;22.90;66.60;;;;;;5072445;28;20224;-57
2023/01/17 09:05:02;;;;;;;2.65;0.98;;;22.90;66.80;;;;;;5064370;28;20334;-58
2023/01/17 09:07:50;;;;;;;7.93;0.98;;;22.20;65.80;;;;;;5078163;28;20265;-58
2023/01/17 09:10:38;;;;;;;3.60;0.90;;;22.90;66.50;;;;;;5072861;28;20217;-58
2023/01/17 09:13:26;;;;;;;1.98;0.75;;;22.90;66.50;;;;;;5074299;28;20680;-58
2023/01/17 09:16:14;;;;;;;9.40;1.10;;;22.90;66.50;;;;;;5063093;28;20697;-58
2023/01/17 09:19:04;;;;;;;7.15;1.65;;;22.90;66.40;;;;;;5074224;28;20232;-58
2023/01/17 09:21:52;;;;;;;6.43;1.13;;;22.90;66.00;;;;;;5074920;28;20240;-58
2023/01/17 09:24:40;;;;;;;7.32;1.25;;;22.90;66.10;;;;;;5070823;28;20192;-58
2023/01/17 09:27:29;;;;;;;7.90;0.88;;;22.90;66.30;;;;;;5069977;28;20224;-57
2023/01/17 09:30:18;;;;;;;2.25;0.90;;;22.90;66.50;;;;;;5067845;28;20291;-57
2023/01/17 09:33:06;;;;;;;5.13;0.85;;;22.90;66.60;;;;;;5073061;28;20200;-57
2023/01/17 09:36:00;;;;;;;4.45;1.02;;;22.90;66.30;;;;;;5075701;28;20215;-60
2023/01/17 09:38:48;;;;;;;2.15;1.00;;;23.00;66.30;;;;;;5067279;28;20232;-57
2023/01/17 09:41:43;;;;;;;10.68;1.52;;;23.00;66.30;;;;;;5066505;28;20220;-57
2023/01/17 09:44:40;;;;;;;27.88;2.47;;;23.00;66.10;;;;;;5063565;28;20250;-57
2023/01/17 09:47:34;;;;;;;15.00;2.67;;;23.00;66.20;;;;;;5064615;28;20322;-58
2023/01/17 09:50:30;;;;;;;9.90;1.33;;;23.00;66.20;;;;;;5060388;28;20223;-57
2023/01/17 09:53:20;;;;;;;3.60;1.08;;;23.00;66.40;;;;;;5073037;28;20196;-60
2023/01/17 09:56:13;;;;;;;4.00;1.08;;;23.10;66.40;;;;;;5069744;28;20283;-58
2023/01/17 09:59:26;;;;;;;10.32;1.17;;;23.00;66.60;;;;;;5063206;28;20373;-58
2023/01/17 10:02:38;;;;;;;4.35;1.38;;;23.10;66.50;;;;;;5077169;28;20734;-58
2023/01/17 10:05:36;;;;;;;8.65;1.35;;;23.20;66.00;;;;;;5072474;28;20208;-59
2023/01/17 10:08:42;;;;;;;4.47;1.00;;;23.20;65.80;;;;;;5073023;28;20220;-58
2023/01/17 10:11:41;;;;;;;5.15;0.88;;;23.20;66.00;;;;;;5064136;28;20273;-59
2023/01/17 10:14:47;;;;;;;5.25;0.90;;;23.10;66.00;;;;;;5071154;28;20673;-59
2023/01/17 10:17:47;;;;;;;6.55;0.80;;;23.10;66.50;;;;;;5065235;28;20277;-59
2023/01/17 10:20:46;;;;;;;2.75;1.67;;;23.10;66.60;;;;;;5067689;28;20296;-58
2023/01/17 10:24:15;;;;;;;5.15;1.13;;;23.00;66.80;;;;;;5068617;28;20220;-58
2023/01/17 10:27:09;;;;;;;4.85;1.00;;;23.10;66.70;;;;;;5068513;28;20242;-59
2023/01/17 10:29:59;;;;;;;3.08;0.98;;;23.00;66.70;;;;;;5060325;28;20208;-58
2023/01/17 10:32:49;;;;;;;2.83;1.15;;;23.00;66.60;;;;;;5067891;28;20253;-59
2023/01/17 10:35:45;;;;;;;4.63;1.00;;;23.00;66.60;;;;;;5065972;28;20286;-59
2023/01/17 10:38:35;;;;;;;12.60;1.67;;;23.00;66.60;;;;;;5071939;28;20229;-59
2023/01/17 10:41:29;;;;;;;4.15;1.63;;;23.00;66.20;;;;;;5071897;28;20235;-59
2023/01/17 10:44:24;;;;;;;4.68;1.25;;;23.10;66.30;;;;;;5071184;28;20691;-59
2023/01/17 10:47:19;;;;;;;0.70;0.70;;;23.40;68.80;;;;;;5070316;28;20236;-59
2023/01/17 10:50:13;;;;;;;7.35;1.33;;;23.20;66.30;;;;;;5062572;28;20205;-59
2023/01/17 10:53:09;;;;;;;1.92;1.35;;;23.20;65.70;;;;;;5072163;28;20282;-58
2023/01/17 10:55:58;;;;;;;5.97;0.80;;;23.20;66.00;;;;;;5063138;28;20212;-58
2023/01/17 10:58:49;;;;;;;88.00;9.70;;;23.20;65.70;;;;;;5066295;28;20237;-59
2023/01/17 11:01:38;;;;;;;13.98;1.27;;;23.30;65.70;;;;;;5061380;28;20215;-61
2023/01/17 11:04:34;;;;;;;8.15;1.63;;;23.20;65.90;;;;;;5069418;28;20665;-60
2023/01/17 11:07:25;;;;;;;7.68;1.48;;;23.20;66.10;;;;;;5067874;28;20281;-61
2023/01/17 11:10:35;;;;;;;8.02;2.08;;;23.20;65.80;;;;;;5064168;28;20205;-59
2023/01/17 11:13:28;;;;;;;10.00;2.13;;;23.10;65.90;;;;;;5069933;28;20669;-59
2023/01/17 11:16:20;;;;;;;10.35;1.55;;;23.10;65.70;;;;;;5070898;28;20635;-59
2023/01/17 11:19:17;;;;;;;3.33;1.10;;;23.00;65.50;;;;;;5070050;28;20228;-59
2023/01/17 11:22:08;;;;;;;3.00;1.20;;;23.00;65.70;;;;;;5069825;28;20261;-60
2023/01/17 11:24:57;;;;;;;4.93;1.70;;;22.90;66.00;;;;;;5070582;28;20243;-60
2023/01/17 11:27:59;;;;;;;1.42;0.90;;;22.90;66.00;;;;;;5069324;28;20701;-60
2023/01/17 11:30:52;;;;;;;3.97;1.05;;;22.90;66.10;;;;;;5071175;28;20203;-60
2023/01/17 11:33:46;;;;;;;4.00;1.30;;;22.90;66.10;;;;;;5071616;28;20201;-60
2023/01/17 11:36:35;;;;;;;2.25;1.17;;;22.90;66.00;;;;;;5071698;28;20991;-60
2023/01/17 11:39:27;;;;;;;4.20;1.15;;;23.00;66.00;;;;;;5069346;28;20225;-60
2023/01/17 11:42:32;;;;;;;7.18;1.05;;;23.00;65.90;;;;;;5072344;28;20220;-60
2023/01/17 11:45:24;;;;;;;2.90;1.20;;;23.00;65.80;;;;;;5072088;28;20601;-60
2023/01/17 11:48:15;;;;;;;4.82;0.95;;;23.00;65.80;;;;;;5071076;28;20216;-60
2023/01/17 11:51:22;;;;;;;3.40;1.20;;;23.10;65.80;;;;;;5071059;28;20680;-60
2023/01/17 11:54:17;;;;;;;2.15;1.00;;;23.00;65.60;;;;;;5071192;28;20192;-60
2023/01/17 11:57:16;;;;;;;5.72;1.50;;;23.20;67.50;;;;;;5070101;28;20204;-61
2023/01/17 12:00:18;;;;;;;10.50;1.38;;;23.10;65.40;;;;;;5062620;28;20292;-59
2023/01/17 12:03:20;;;;;;;12.85;1.42;;;23.00;65.50;;;;;;5067968;28;20290;-64
2023/01/17 12:06:16;;;;;;;5.13;1.75;;;23.00;65.50;;;;;;5071285;28;20215;-63
2023/01/17 12:09:21;;;;;;;5.30;1.00;;;23.00;65.70;;;;;;5066905;28;20289;-63
2023/01/17 12:15:38;;;;;;;3.53;1.05;;;22.90;66.00;;;;;;5050728;28;20293;-63
2023/01/17 12:18:39;;;;;;;2.08;1.20;;;22.80;66.30;;;;;;5069356;28;20301;-63
2023/01/17 12:21:38;;;;;;;4.53;1.02;;;22.90;66.60;;;;;;5066924;28;20256;-64
2023/01/17 12:24:55;;;;;;;3.15;1.02;;;22.90;66.80;;;;;;5070011;28;20212;-63
2023/01/17 12:27:51;;;;;;;3.50;0.85;;;22.90;66.70;;;;;;5071485;28;20313;-65
2023/01/17 12:30:52;;;;;;;4.13;1.27;;;22.90;66.80;;;;;;5071289;28;20246;-65
2023/01/17 12:33:47;;;;;;;5.97;1.00;;;22.90;66.90;;;;;;5068165;28;20288;-64
2023/01/17 12:36:45;;;;;;;3.08;1.00;;;22.90;67.00;;;;;;5069876;28;20197;-63
2023/01/17 12:39:39;;;;;;;3.88;1.35;;;22.90;66.80;;;;;;5074588;28;20211;-63
2023/01/17 12:42:33;;;;;;;5.70;0.90;;;22.90;67.00;;;;;;5078370;28;20254;-63
2023/01/17 12:45:27;;;;;;;6.47;1.02;;;23.00;67.10;;;;;;5073381;28;20204;-63
2023/01/17 12:48:17;;;;;;;2.42;0.90;;;23.00;66.90;;;;;;5071513;28;20307;-65
2023/01/17 12:51:09;;;;;;;7.43;1.20;;;23.00;66.90;;;;;;5070281;28;20205;-63
2023/01/17 12:54:03;;;;;;;8.68;1.63;;;23.00;66.70;;;;;;5077787;28;20249;-62
2023/01/17 12:56:53;;;;;;;3.38;1.00;;;23.00;66.60;;;;;;5091837;28;20625;-64
2023/01/17 12:59:47;;;;;;;4.22;1.67;;;23.00;66.50;;;;;;5076716;28;20283;-65
2023/01/17 13:02:38;;;;;;;5.05;0.93;;;23.10;66.60;;;;;;5071299;28;20203;-64
2023/01/17 13:05:32;;;;;;;3.65;1.20;;;23.10;66.30;;;;;;5091157;28;20283;-62
2023/01/17 13:08:27;;;;;;;1.95;1.00;;;23.10;66.40;;;;;;5091355;28;20231;-64
2023/01/17 13:11:22;;;;;;;2.45;1.20;;;23.00;66.40;;;;;;5080892;28;20208;-64
2023/01/17 13:14:10;;;;;;;6.82;1.10;;;23.00;67.10;;;;;;5070895;28;20213;-65
2023/01/17 13:17:00;;;;;;;1.80;1.25;;;23.00;66.40;;;;;;5066855;28;20744;-60
2023/01/17 13:19:53;;;;;;;2.65;1.20;;;23.00;66.90;;;;;;5064739;28;20259;-60
2023/01/17 13:22:43;;;;;;;4.38;1.10;;;23.00;67.00;;;;;;5067251;28;20780;-60
2023/01/17 13:25:40;;;;;;;6.88;1.20;;;23.00;67.00;;;;;;5063081;28;20331;-58
2023/01/17 13:28:41;;;;;;;3.33;0.90;;;23.00;67.00;;;;;;5071580;28;20362;-62
2023/01/17 13:31:44;;;;;;;1.58;1.00;;;23.00;67.10;;;;;;5071696;28;20231;-67
2023/01/17 13:34:58;;;;;;;1.95;1.58;;;23.00;67.00;;;;;;5069667;28;20326;-59
2023/01/17 13:38:18;;;;;;;4.35;1.25;;;23.00;67.30;;;;;;5069628;28;20232;-60
2023/01/17 13:41:16;;;;;;;3.60;1.00;;;23.20;67.30;;;;;;5063317;28;20202;-60
2023/01/17 13:44:23;;;;;;;10.45;1.30;;;23.10;67.00;;;;;;5073256;28;20216;-59
2023/01/17 13:47:37;;;;;;;2.30;0.90;;;23.20;66.90;;;;;;5074077;28;20211;-62
2023/01/17 13:50:47;;;;;;;1.90;0.90;;;23.20;66.70;;;;;;5067436;28;20653;-60
2023/01/17 13:53:57;;;;;;;4.22;0.90;;;23.20;66.60;;;;;;5092759;28;20200;-60
2023/01/17 13:56:45;;;;;;;4.45;1.00;;;23.20;66.40;;;;;;5093334;28;20224;-61
2023/01/17 13:59:34;;;;;;;9.07;1.05;;;23.20;67.10;;;;;;5065998;28;20233;-59
2023/01/17 14:02:37;;;;;;;5.07;1.60;;;23.20;66.40;;;;;;5068313;28;20228;-58
2023/01/17 14:05:48;;;;;;;4.80;1.20;;;23.30;66.60;;;;;;5070448;28;20204;-59
2023/01/17 14:08:43;;;;;;;5.32;0.93;;;23.20;66.20;;;;;;5072966;28;20224;-59
2023/01/17 14:11:35;;;;;;;1.98;0.93;;;23.20;66.40;;;;;;5062496;28;20250;-59
2023/01/17 14:14:45;;;;;;;6.18;1.77;;;23.20;66.40;;;;;;5073997;28;20200;-60
2023/01/17 14:17:59;;;;;;;4.60;1.38;;;23.20;66.60;;;;;;5071833;28;20224;-59
2023/01/17 14:21:11;;;;;;;5.55;1.10;;;23.20;66.60;;;;;;5075000;28;20201;-59
2023/01/17 14:24:03;;;;;;;4.47;1.20;;;23.20;66.50;;;;;;5076258;28;20305;-60
2023/01/17 14:26:54;;;;;;;1.77;1.00;;;23.20;66.40;;;;;;5073258;28;20282;-60
2023/01/17 14:29:55;;;;;;;4.95;1.67;;;23.20;66.40;;;;;;5068366;28;20400;-60
2023/01/17 14:33:12;;;;;;;5.53;0.90;;;23.30;66.30;;;;;;5073131;28;20198;-60
2023/01/17 14:36:03;;;;;;;3.67;1.10;;;23.30;66.20;;;;;;5072853;28;20205;-59
2023/01/17 14:38:52;;;;;;;3.08;1.00;;;23.40;65.90;;;;;;5072064;28;20306;-61
2023/01/17 14:41:40;;;;;;;5.57;1.10;;;23.50;66.00;;;;;;5071861;28;20232;-60
2023/01/17 14:44:28;;;;;;;5.07;0.82;;;23.40;65.90;;;;;;5072092;28;20223;-59
2023/01/17 14:47:18;;;;;;;4.57;1.25;;;22.70;66.90;;;;;;5071093;28;20588;-60
2023/01/17 14:50:12;;;;;;;1.83;1.58;;;23.40;65.60;;;;;;5071874;28;20237;-58
2023/01/17 14:53:08;;;;;;;6.28;1.23;;;23.40;65.50;;;;;;5072297;28;20281;-59
2023/01/17 14:55:59;;;;;;;2.90;1.30;;;23.30;65.40;;;;;;5070077;28;20227;-59
2023/01/17 14:58:47;;;;;;;7.22;1.05;;;23.30;65.40;;;;;;5070783;28;20822;-60
2023/01/17 15:01:35;;;;;;;5.72;1.35;;;23.30;65.50;;;;;;5052404;28;20212;-60
2023/01/17 15:04:27;;;;;;;6.88;2.05;;;23.20;65.30;;;;;;5064560;28;20220;-60
2023/01/17 15:07:18;;;;;;;7.93;1.48;;;23.10;68.00;;;;;;5071216;28;20238;-61
2023/01/17 15:10:12;;;;;;;3.85;1.00;;;23.10;65.60;;;;;;5062972;28;20201;-60
2023/01/17 15:13:08;;;;;;;4.13;1.30;;;23.10;65.80;;;;;;5068603;28;20258;-60
2023/01/17 15:16:04;;;;;;;3.90;1.23;;;23.10;65.70;;;;;;5071004;28;20201;-61
2023/01/17 15:18:54;;;;;;;4.38;1.52;;;23.10;65.70;;;;;;5070231;28;20232;-62
2023/01/17 15:21:45;;;;;;;3.22;1.15;;;23.10;66.10;;;;;;5070593;28;20290;-61
2023/01/17 15:24:40;;;;;;;3.88;1.23;;;23.20;65.70;;;;;;5071050;28;20307;-61
2023/01/17 15:27:28;;;;;;;9.90;1.42;;;23.20;65.70;;;;;;5067987;28;20667;-61
2023/01/17 15:30:18;;;;;;;6.43;1.15;;;23.20;65.50;;;;;;5052610;28;20259;-61
2023/01/17 15:33:11;;;;;;;4.00;1.13;;;23.30;65.40;;;;;;5050933;28;20221;-61
2023/01/17 15:36:01;;;;;;;8.80;1.65;;;23.20;65.40;;;;;;5057366;28;20326;-60
2023/01/17 15:38:56;;;;;;;2.95;1.23;;;23.30;65.40;;;;;;5060457;28;20260;-60
2023/01/17 15:41:46;;;;;;;5.25;1.60;;;23.30;65.40;;;;;;5069779;28;20311;-64
2023/01/17 15:44:36;;;;;;;5.80;1.48;;;23.20;64.80;;;;;;5070198;28;20373;-60
2023/01/17 15:47:40;;;;;;;6.43;1.95;;;23.20;64.60;;;;;;5069894;28;20764;-62
2023/01/17 15:50:38;;;;;;;5.85;1.50;;;23.20;64.50;;;;;;5069851;28;20215;-61
2023/01/17 15:53:31;;;;;;;10.60;1.65;;;23.20;64.30;;;;;;5069004;28;20202;-60
2023/01/17 15:56:30;;;;;;;4.60;1.42;;;23.20;64.60;;;;;;5070061;28;20202;-60
2023/01/17 15:59:32;;;;;;;3.38;1.42;;;23.20;64.70;;;;;;5071055;28;20225;-60
2023/01/17 16:02:40;;;;;;;2.83;1.17;;;23.10;64.70;;;;;;5071179;28;20282;-60
2023/01/17 16:05:43;;;;;;;8.80;2.13;;;23.10;64.60;;;;;;5072150;28;20220;-59
2023/01/17 16:08:38;;;;;;;6.57;1.50;;;23.10;64.00;;;;;;5066656;22;20314;-59
2023/01/17 16:11:28;;;;;;;8.55;1.85;;;23.10;64.60;;;;;;5028602;28;20759;-60
2023/01/17 16:14:16;;;;;;;7.03;1.90;;;23.20;64.60;;;;;;5030669;28;20681;-59
2023/01/17 16:17:05;;;;;;;3.70;1.30;;;23.10;66.40;;;;;;5030176;28;20286;-59
2023/01/17 16:19:53;;;;;;;5.07;1.70;;;23.20;64.50;;;;;;5030838;28;20202;-59
2023/01/17 16:22:42;;;;;;;5.05;1.60;;;23.20;64.30;;;;;;5029844;28;20201;-60